Time;durP1;ratioP1;P1;durP2;ratioP2;P2;SDS_P1;SDS_P2;PMS_P1;PMS_P2;Temp;Humidity;BMP_temperature;BMP_pressure;BME280_temperature;BME280_humidity;BME280_pressure;Samples;Min_cycle;Max_cycle;Signal;HPM_P1;HPM_P2
2021/12/13 00:02:26;;;;;;;11.37;6.80;;;4.80;97.30;;;;;;4946117;28;20512;-87
2021/12/13 00:05:01;;;;;;;12.27;6.17;;;4.80;97.30;;;;;;4976688;28;20416;-87
2021/12/13 00:07:30;;;;;;;14.53;6.70;;;4.80;97.30;;;;;;4976935;28;20962;-86
2021/12/13 00:09:59;;;;;;;12.50;6.00;;;4.80;97.30;;;;;;4976658;28;20421;-86
2021/12/13 00:12:34;;;;;;;15.43;6.03;;;4.80;97.30;;;;;;4976218;28;20409;-85
2021/12/13 00:15:04;;;;;;;11.77;6.10;;;4.80;97.30;;;;;;4976759;28;20782;-86
2021/12/13 00:17:38;;;;;;;14.10;5.90;;;4.80;97.30;;;;;;4992596;28;20808;-87
2021/12/13 00:20:37;;;;;;;13.90;6.37;;;4.80;97.30;;;;;;4993862;28;20507;-86
2021/12/13 00:23:22;;;;;;;15.60;6.90;;;4.80;97.30;;;;;;4976382;28;20805;-86
2021/12/13 00:25:52;;;;;;;16.33;6.83;;;4.80;97.30;;;;;;4976788;28;20417;-86
2021/12/13 00:28:21;;;;;;;13.07;6.60;;;4.80;97.30;;;;;;4975826;28;20417;-86
2021/12/13 00:30:46;;;;;;;14.23;6.87;;;4.80;97.30;;;;;;4976323;28;20409;-87
2021/12/13 00:33:36;;;;;;;13.77;6.90;;;4.80;97.30;;;;;;4993591;28;20799;-87
2021/12/13 00:36:09;;;;;;;13.23;5.87;;;4.80;97.30;;;;;;4976429;28;20182;-86
2021/12/13 00:38:44;;;;;;;14.53;6.07;;;4.80;97.30;;;;;;4976492;28;20471;-87
2021/12/13 00:41:15;;;;;;;14.83;6.93;;;4.80;97.30;;;;;;4976593;28;20461;-86
2021/12/13 00:44:01;;;;;;;14.13;6.90;;;4.80;97.30;;;;;;4976348;28;20441;-87
2021/12/13 00:46:29;;;;;;;13.77;7.13;;;4.80;97.30;;;;;;4976141;28;20445;-87
2021/12/13 00:48:57;;;;;;;14.70;7.30;;;4.90;97.30;;;;;;4993301;28;20416;-86
2021/12/13 00:51:28;;;;;;;18.13;6.90;;;4.90;97.30;;;;;;4976371;28;20409;-86
2021/12/13 00:53:57;;;;;;;13.50;6.10;;;4.90;97.30;;;;;;4977496;28;20971;-86
2021/12/13 00:56:44;;;;;;;14.40;5.70;;;4.90;97.30;;;;;;4996775;28;20449;-86
2021/12/13 00:59:20;;;;;;;12.03;6.97;;;4.90;97.30;;;;;;4979320;28;20908;-87
2021/12/13 01:01:56;;;;;;;18.40;6.57;;;4.90;97.30;;;;;;4979300;28;20448;-86
2021/12/13 01:04:43;;;;;;;14.70;7.20;;;4.90;97.30;;;;;;4979820;28;20472;-86
2021/12/13 01:07:54;;;;;;;14.20;6.40;;;4.90;97.30;;;;;;4996942;28;20421;-84
2021/12/13 01:10:39;;;;;;;11.03;5.53;;;4.90;97.30;;;;;;4979412;28;20421;-86
2021/12/13 01:13:23;;;;;;;12.37;6.50;;;4.90;97.30;;;;;;4995882;28;20825;-87
2021/12/13 01:15:58;;;;;;;12.27;5.53;;;4.90;97.30;;;;;;4979376;28;20477;-87
2021/12/13 01:18:58;;;;;;;13.50;6.33;;;4.90;97.30;;;;;;4979370;28;20420;-87
2021/12/13 01:21:42;;;;;;;19.77;7.90;;;5.00;97.30;;;;;;4978548;28;20835;-86
2021/12/13 01:24:15;;;;;;;14.17;6.30;;;5.00;97.30;;;;;;4996849;28;20440;-86
2021/12/13 01:26:46;;;;;;;15.83;6.50;;;5.00;97.30;;;;;;4996502;28;20413;-86
2021/12/13 01:29:21;;;;;;;14.80;6.60;;;5.00;97.30;;;;;;4995323;28;20426;-86
2021/12/13 01:32:04;;;;;;;13.70;6.70;;;5.00;97.30;;;;;;4979190;28;20448;-87
2021/12/13 01:34:36;;;;;;;16.67;7.57;;;5.00;97.30;;;;;;4978814;28;21114;-86
2021/12/13 01:40:14;;;;;;;12.20;6.70;;;5.00;97.30;;;;;;4935521;29;20981;-86
2021/12/13 01:43:07;;;;;;;16.10;7.20;;;5.00;97.30;;;;;;4978691;28;20490;-86
2021/12/13 01:45:54;;;;;;;16.17;6.77;;;5.00;97.30;;;;;;4979188;28;20441;-86
2021/12/13 01:48:54;;;;;;;16.20;6.93;;;5.10;97.30;;;;;;4978524;28;20421;-86
2021/12/13 01:51:34;;;;;;;15.00;6.97;;;5.10;97.30;;;;;;4979011;28;20420;-86
2021/12/13 01:54:44;;;;;;;13.30;6.07;;;5.10;97.30;;;;;;4990148;28;20449;-86
2021/12/13 01:57:41;;;;;;;16.13;7.37;;;5.10;97.30;;;;;;4916191;29;20824;-86
2021/12/13 02:00:33;;;;;;;13.60;6.40;;;5.10;97.30;;;;;;4916241;29;20500;-86
2021/12/13 02:03:56;;;;;;;;;;;;;;;;;;;;;
2021/12/13 02:07:01;;;;;;;14.80;6.53;;;5.10;97.30;;;;;;4978431;28;20419;-86
2021/12/13 02:09:54;;;;;;;12.43;6.23;;;5.10;97.30;;;;;;4993869;28;20503;-85
2021/12/13 02:12:28;;;;;;;16.57;8.27;;;5.10;97.30;;;;;;4969812;28;20422;-85
2021/12/13 02:17:46;;;;;;;13.90;6.63;;;5.10;97.30;;;;;;4995673;28;20405;-86
2021/12/13 02:20:34;;;;;;;20.47;8.87;;;5.10;97.30;;;;;;4994403;28;20832;-86
2021/12/13 02:23:23;;;;;;;12.17;6.63;;;5.10;97.30;;;;;;4997375;28;20809;-86
2021/12/13 02:25:55;;;;;;;13.63;6.30;;;5.10;97.30;;;;;;4997202;28;20419;-86
2021/12/13 02:31:44;;;;;;;15.03;6.67;;;5.20;97.30;;;;;;5003607;28;20425;-86
2021/12/13 02:34:23;;;;;;;15.10;6.60;;;5.20;97.30;;;;;;4997070;28;20518;-86
2021/12/13 02:37:15;;;;;;;14.27;6.60;;;5.20;97.30;;;;;;4996819;28;20473;-86
2021/12/13 02:39:58;;;;;;;;;;;;;;;;;;;;;
2021/12/13 02:42:36;;;;;;;13.87;6.57;;;5.20;97.30;;;;;;5014762;28;20924;-86
2021/12/13 02:45:25;;;;;;;14.93;6.90;;;5.20;97.30;;;;;;4997106;28;20458;-86
2021/12/13 02:48:05;;;;;;;12.47;6.03;;;5.20;97.30;;;;;;4997098;28;20420;-86
2021/12/13 02:51:05;;;;;;;13.30;6.63;;;5.20;97.30;;;;;;4997027;28;20930;-85
2021/12/13 02:54:03;;;;;;;15.57;6.70;;;5.20;97.30;;;;;;4996929;28;20465;-86
2021/12/13 02:56:45;;;;;;;16.03;6.57;;;5.20;97.30;;;;;;4996430;28;20486;-86
2021/12/13 02:59:23;;;;;;;15.67;7.03;;;5.20;97.30;;;;;;4997135;28;20778;-86
2021/12/13 03:02:17;;;;;;;15.37;6.00;;;5.20;97.30;;;;;;4996388;28;20514;-86
2021/12/13 03:04:55;;;;;;;12.83;6.57;;;5.20;97.30;;;;;;5012783;28;20468;-87
2021/12/13 03:07:35;;;;;;;15.40;7.13;;;5.20;97.30;;;;;;4996746;28;20416;-87
2021/12/13 03:13:25;;;;;;;10.60;5.37;;;5.20;97.30;;;;;;5014440;28;20511;-87
2021/12/13 03:16:37;;;;;;;14.87;6.20;;;5.20;97.30;;;;;;4996126;28;20499;-86
2021/12/13 03:19:46;;;;;;;11.80;6.23;;;5.30;97.30;;;;;;4996958;28;21237;-86
2021/12/13 03:22:44;;;;;;;9.70;4.93;;;5.30;97.30;;;;;;4956218;28;20429;-86
2021/12/13 03:26:14;;;;;;;12.70;6.00;;;5.30;97.30;;;;;;4960924;28;20453;-87
2021/12/13 03:29:34;;;;;;;10.20;4.80;;;5.30;97.30;;;;;;4972795;28;20409;-86
2021/12/13 03:32:05;;;;;;;11.40;5.83;;;5.30;97.30;;;;;;4944517;28;20420;-86
2021/12/13 03:34:35;;;;;;;12.90;5.70;;;5.30;97.30;;;;;;4996257;28;20450;-86
2021/12/13 03:37:24;;;;;;;11.60;5.93;;;5.30;97.30;;;;;;4996260;28;20411;-86
2021/12/13 03:40:06;;;;;;;13.10;5.63;;;5.30;97.30;;;;;;4996287;28;20402;-86
2021/12/13 03:43:05;;;;;;;11.20;5.50;;;5.40;97.30;;;;;;5013928;28;20495;-86
2021/12/13 03:46:03;;;;;;;13.10;6.07;;;5.40;97.30;;;;;;5011373;28;20499;-86
2021/12/13 03:49:05;;;;;;;9.80;5.07;;;5.40;97.30;;;;;;4992014;28;20859;-86
2021/12/13 03:52:14;;;;;;;12.50;5.50;;;5.40;97.30;;;;;;5014450;28;20765;-86
2021/12/13 03:54:57;;;;;;;;;;;;;;;;;;;;;
2021/12/13 04:00:35;;;;;;;10.10;4.57;;;5.40;97.30;;;;;;4895925;29;20468;-86
2021/12/13 04:03:17;;;;;;;11.77;5.33;;;5.40;97.30;;;;;;4946076;28;20474;-86
2021/12/13 04:05:56;;;;;;;9.97;5.40;;;5.40;97.30;;;;;;4995739;28;20950;-87
2021/12/13 04:09:16;;;;;;;17.37;6.80;;;5.40;97.30;;;;;;5013375;28;20420;-86
2021/12/13 04:11:45;;;;;;;10.67;4.70;;;5.40;97.30;;;;;;5012049;28;20427;-87
2021/12/13 04:14:27;;;;;;;11.63;6.03;;;5.50;97.30;;;;;;5014088;28;20442;-86
2021/12/13 04:17:36;;;;;;;17.60;6.53;;;5.50;97.30;;;;;;4995044;28;20938;-85
2021/12/13 04:23:43;;;;;;;12.10;5.97;;;5.50;97.30;;;;;;4994492;28;20478;-86
2021/12/13 04:26:15;;;;;;;20.60;6.93;;;5.50;97.30;;;;;;4996131;28;20409;-86
2021/12/13 04:28:47;;;;;;;16.93;7.50;;;5.60;97.30;;;;;;5015039;28;20465;-86
2021/12/13 04:31:17;;;;;;;21.17;8.87;;;5.60;97.30;;;;;;4999441;28;20450;-86
2021/12/13 04:33:48;;;;;;;14.73;6.80;;;5.60;97.30;;;;;;4999995;28;20444;-86
2021/12/13 04:36:20;;;;;;;15.73;6.80;;;5.60;97.30;;;;;;4999989;28;20411;-87
2021/12/13 04:38:55;;;;;;;16.47;7.00;;;5.60;97.30;;;;;;4999391;28;20427;-86
2021/12/13 04:41:55;;;;;;;19.20;7.40;;;5.60;97.30;;;;;;5015639;28;20888;-86
2021/12/13 04:44:36;;;;;;;18.07;7.73;;;5.60;97.30;;;;;;4986436;28;20432;-86
2021/12/13 04:47:16;;;;;;;19.80;7.13;;;5.60;97.30;;;;;;5017593;28;20393;-86
2021/12/13 04:49:48;;;;;;;16.57;7.93;;;5.60;97.30;;;;;;4999491;28;20447;-86
2021/12/13 04:52:19;;;;;;;18.33;6.17;;;5.70;97.30;;;;;;4999171;28;20412;-85
2021/12/13 04:54:49;;;;;;;18.20;7.50;;;5.70;97.30;;;;;;4999151;28;20405;-86
2021/12/13 04:57:16;;;;;;;20.40;6.90;;;5.70;97.30;;;;;;4999396;28;20486;-86
2021/12/13 04:59:52;;;;;;;17.60;6.93;;;5.70;97.30;;;;;;4999707;28;21233;-86
2021/12/13 05:02:18;;;;;;;21.73;9.00;;;5.70;97.30;;;;;;4998926;28;20411;-86
2021/12/13 05:04:44;;;;;;;26.27;8.30;;;5.80;97.30;;;;;;4998900;28;20471;-86
2021/12/13 05:07:09;;;;;;;24.13;8.60;;;5.70;97.30;;;;;;4999081;28;20985;-86
2021/12/13 05:09:36;;;;;;;23.97;7.93;;;5.80;97.30;;;;;;4999303;28;20173;-86
2021/12/13 05:12:01;;;;;;;18.63;8.20;;;5.80;97.30;;;;;;4999174;28;20177;-86
2021/12/13 05:14:48;;;;;;;22.30;7.40;;;5.80;97.30;;;;;;4998620;28;20504;-85
2021/12/13 05:17:37;;;;;;;24.63;8.23;;;5.80;97.30;;;;;;4998598;28;20644;-86
2021/12/13 05:20:17;;;;;;;25.17;8.10;;;5.80;97.30;;;;;;4999284;28;20478;-86
2021/12/13 05:23:01;;;;;;;19.03;7.40;;;5.80;97.30;;;;;;4999109;28;20432;-86
2021/12/13 05:25:37;;;;;;;18.17;7.50;;;5.80;97.30;;;;;;4998365;28;20423;-85
2021/12/13 05:28:11;;;;;;;19.13;7.60;;;5.80;97.30;;;;;;4998670;28;20450;-85
2021/12/13 05:30:48;;;;;;;21.43;7.50;;;5.80;97.30;;;;;;4998748;28;20915;-85
2021/12/13 05:33:16;;;;;;;22.53;8.20;;;5.80;97.30;;;;;;4999122;28;20974;-86
2021/12/13 05:35:48;;;;;;;24.97;7.70;;;5.80;97.30;;;;;;4998734;28;20428;-86
2021/12/13 05:38:28;;;;;;;19.00;8.23;;;5.90;97.30;;;;;;4998700;28;20831;-85
2021/12/13 05:40:55;;;;;;;20.73;7.10;;;5.90;97.30;;;;;;5016066;28;20455;-85
2021/12/13 05:43:40;;;;;;;19.37;7.27;;;5.90;97.30;;;;;;4997952;28;21183;-86
2021/12/13 05:46:10;;;;;;;24.40;8.40;;;5.90;97.30;;;;;;4997845;28;20423;-85
2021/12/13 05:48:35;;;;;;;28.10;10.50;;;5.90;97.30;;;;;;4997830;28;20412;-85
2021/12/13 05:51:26;;;;;;;18.87;7.63;;;6.00;97.30;;;;;;5015644;28;20490;-86
2021/12/13 05:54:29;;;;;;;26.27;8.70;;;5.90;97.30;;;;;;4997594;28;20193;-86
2021/12/13 05:57:00;;;;;;;18.53;8.17;;;6.00;97.30;;;;;;4997675;28;20420;-86
2021/12/13 05:59:31;;;;;;;21.97;8.50;;;6.00;97.30;;;;;;4998199;28;20420;-86
2021/12/13 06:01:59;;;;;;;17.77;8.17;;;6.00;97.30;;;;;;5014529;28;20452;-85
2021/12/13 06:04:40;;;;;;;25.13;9.30;;;6.00;97.30;;;;;;5012861;28;20508;-86
2021/12/13 06:07:27;;;;;;;23.03;7.50;;;6.00;97.30;;;;;;4997587;28;20495;-86
2021/12/13 06:10:07;;;;;;;23.73;8.90;;;6.00;97.30;;;;;;4997368;28;20414;-85
2021/12/13 06:12:39;;;;;;;20.13;8.10;;;6.00;97.30;;;;;;4997068;28;20444;-85
2021/12/13 06:15:17;;;;;;;24.40;8.70;;;6.00;97.30;;;;;;4997798;28;20428;-85
2021/12/13 06:17:57;;;;;;;24.23;7.27;;;6.00;97.30;;;;;;5013697;28;20424;-85
2021/12/13 06:20:34;;;;;;;16.80;7.57;;;6.10;97.30;;;;;;4997304;28;20522;-86
2021/12/13 06:23:16;;;;;;;23.67;9.10;;;6.10;97.30;;;;;;5014972;28;20435;-86
2021/12/13 06:25:45;;;;;;;27.60;8.57;;;6.10;97.30;;;;;;4997831;28;20448;-85
2021/12/13 06:28:20;;;;;;;20.00;8.50;;;6.10;97.30;;;;;;4997134;28;20414;-86
2021/12/13 06:30:53;;;;;;;21.20;9.53;;;6.10;97.30;;;;;;4997308;28;21019;-86
2021/12/13 06:33:19;;;;;;;32.87;10.03;;;6.10;97.30;;;;;;5014838;28;20918;-86
2021/12/13 06:35:49;;;;;;;23.90;9.00;;;6.10;97.30;;;;;;4997555;28;20412;-85
2021/12/13 06:38:46;;;;;;;24.20;9.90;;;6.10;97.30;;;;;;4997062;28;20263;-86
2021/12/13 06:41:26;;;;;;;25.27;9.70;;;6.10;97.30;;;;;;5015268;28;21017;-86
2021/12/13 06:44:16;;;;;;;29.87;10.37;;;6.20;97.30;;;;;;5014576;28;20485;-86
2021/12/13 06:46:53;;;;;;;31.70;11.93;;;6.20;97.30;;;;;;4996890;28;21022;-86
2021/12/13 06:49:33;;;;;;;31.33;10.00;;;6.20;97.30;;;;;;4997252;28;20404;-86
2021/12/13 06:52:11;;;;;;;33.57;12.00;;;6.20;97.30;;;;;;4997230;28;20557;-86
2021/12/13 06:54:55;;;;;;;28.30;10.60;;;6.20;97.30;;;;;;4996467;28;20412;-86
2021/12/13 06:57:30;;;;;;;37.33;12.37;;;6.20;97.30;;;;;;4996966;28;20420;-86
2021/12/13 07:00:26;;;;;;;27.03;11.70;;;6.20;97.30;;;;;;4996906;28;20436;-85
2021/12/13 07:02:55;;;;;;;27.80;11.43;;;6.20;97.30;;;;;;5014140;28;20459;-85
2021/12/13 07:05:33;;;;;;;37.00;12.47;;;6.30;97.30;;;;;;5013383;28;20938;-86
2021/12/13 07:08:11;;;;;;;31.43;11.70;;;6.30;97.30;;;;;;4996627;28;20507;-85
2021/12/13 07:11:08;;;;;;;37.93;13.27;;;6.30;97.30;;;;;;4997408;28;20427;-85
2021/12/13 07:13:35;;;;;;;33.13;13.10;;;6.30;97.30;;;;;;5001708;28;20451;-86
2021/12/13 07:16:11;;;;;;;29.53;11.27;;;6.30;97.30;;;;;;5013760;28;20412;-86
2021/12/13 07:18:55;;;;;;;28.60;12.27;;;6.30;97.30;;;;;;4996408;28;20871;-86
2021/12/13 07:21:55;;;;;;;34.33;10.33;;;6.30;97.30;;;;;;4994489;28;20468;-86
2021/12/13 07:24:42;;;;;;;36.07;10.63;;;6.30;97.30;;;;;;4993238;28;20498;-86
2021/12/13 07:27:15;;;;;;;28.87;11.10;;;6.40;97.30;;;;;;4996193;28;20491;-86
2021/12/13 07:29:54;;;;;;;27.57;10.43;;;6.40;97.30;;;;;;4992146;28;20511;-86
2021/12/13 07:32:57;;;;;;;27.23;9.87;;;6.40;97.30;;;;;;5008891;28;20403;-86
2021/12/13 07:35:32;;;;;;;29.97;10.83;;;6.40;97.30;;;;;;4992957;28;21051;-86
2021/12/13 07:38:01;;;;;;;29.70;11.17;;;6.40;97.30;;;;;;5008995;28;20412;-86
2021/12/13 07:40:29;;;;;;;27.53;10.30;;;6.40;97.30;;;;;;4993475;28;20552;-85
2021/12/13 07:43:13;;;;;;;32.80;11.80;;;6.50;97.30;;;;;;4976619;28;20491;-86
2021/12/13 07:46:06;;;;;;;31.37;10.67;;;6.50;97.30;;;;;;5009151;28;20908;-86
2021/12/13 07:48:50;;;;;;;38.07;11.67;;;6.50;97.30;;;;;;5009229;28;20415;-86
2021/12/13 07:51:33;;;;;;;37.80;11.87;;;6.50;97.30;;;;;;4976953;28;20443;-85
2021/12/13 07:53:59;;;;;;;26.73;9.43;;;6.60;97.30;;;;;;5008851;28;20445;-85
2021/12/13 07:56:36;;;;;;;36.80;11.20;;;6.60;97.30;;;;;;5012622;28;20523;-86
2021/12/13 07:59:24;;;;;;;30.00;11.27;;;6.60;97.30;;;;;;4995710;28;20655;-86
2021/12/13 08:02:02;;;;;;;30.23;11.90;;;6.70;97.30;;;;;;4995661;28;20460;-85
2021/12/13 08:05:08;;;;;;;33.03;11.57;;;6.70;97.30;;;;;;4998399;28;20982;-86
2021/12/13 08:07:47;;;;;;;33.03;11.40;;;6.70;97.30;;;;;;4996266;28;21028;-86
2021/12/13 08:10:21;;;;;;;32.50;10.90;;;6.70;97.30;;;;;;4996855;28;20543;-86
2021/12/13 08:12:54;;;;;;;40.20;12.30;;;6.70;97.30;;;;;;4996349;28;20452;-86
2021/12/13 08:15:27;;;;;;;37.80;11.70;;;6.70;97.30;;;;;;4996624;28;20417;-86
2021/12/13 08:17:56;;;;;;;36.63;12.17;;;6.80;97.30;;;;;;4996834;28;20424;-86
2021/12/13 08:20:35;;;;;;;35.83;13.03;;;6.80;97.30;;;;;;4996669;28;20460;-85
2021/12/13 08:23:04;;;;;;;39.77;13.07;;;6.80;97.30;;;;;;4998689;28;20437;-85
2021/12/13 08:25:34;;;;;;;40.87;12.83;;;6.80;97.30;;;;;;4995671;28;20507;-85
2021/12/13 08:28:15;;;;;;;36.50;13.03;;;6.90;97.30;;;;;;4999905;28;20412;-86
2021/12/13 08:30:59;;;;;;;33.07;11.90;;;6.90;97.30;;;;;;4996653;28;20427;-86
2021/12/13 08:33:30;;;;;;;39.63;15.20;;;6.90;97.30;;;;;;5012260;28;20481;-86
2021/12/13 08:36:15;;;;;;;43.57;15.53;;;6.90;97.30;;;;;;4999426;28;20440;-86
2021/12/13 08:38:50;;;;;;;41.47;15.33;;;6.90;97.30;;;;;;4998773;28;20424;-86
2021/12/13 08:41:21;;;;;;;31.97;14.50;;;7.00;97.30;;;;;;4998384;28;20540;-85
2021/12/13 08:43:58;;;;;;;43.00;13.40;;;7.00;97.30;;;;;;4998688;28;20447;-84
2021/12/13 08:46:33;;;;;;;39.20;13.53;;;7.00;97.30;;;;;;4999569;28;20418;-85
2021/12/13 08:49:00;;;;;;;41.10;14.00;;;7.00;97.30;;;;;;4998351;28;20918;-85
2021/12/13 08:51:29;;;;;;;40.47;15.23;;;7.00;97.30;;;;;;4999017;28;20953;-85
2021/12/13 08:54:05;;;;;;;47.77;15.43;;;7.10;97.30;;;;;;4998512;28;20809;-86
2021/12/13 08:56:40;;;;;;;38.77;12.93;;;7.10;97.30;;;;;;4994710;28;20866;-85
2021/12/13 08:59:16;;;;;;;52.20;15.60;;;7.10;97.30;;;;;;4998452;28;20840;-85
2021/12/13 09:01:46;;;;;;;40.67;13.63;;;7.10;97.30;;;;;;4996388;28;20546;-86
2021/12/13 09:04:25;;;;;;;45.27;14.53;;;7.10;97.30;;;;;;4995334;28;20483;-85
2021/12/13 09:06:56;;;;;;;46.00;14.07;;;7.20;97.30;;;;;;4990429;28;20424;-86
2021/12/13 09:09:22;;;;;;;39.70;13.17;;;7.20;97.30;;;;;;4995809;28;20424;-86
2021/12/13 09:11:55;;;;;;;44.07;14.60;;;7.20;97.30;;;;;;5015648;28;20510;-85
2021/12/13 09:14:40;;;;;;;48.17;14.37;;;7.20;97.30;;;;;;4994506;28;20444;-86
2021/12/13 09:17:21;;;;;;;38.53;13.77;;;7.30;97.30;;;;;;4995619;28;20990;-86
2021/12/13 09:19:50;;;;;;;36.73;14.73;;;7.30;97.30;;;;;;4978971;28;20416;-86
2021/12/13 09:22:24;;;;;;;39.63;13.30;;;7.30;97.30;;;;;;4978869;28;20425;-85
2021/12/13 09:24:56;;;;;;;42.27;14.10;;;7.30;97.30;;;;;;4978926;28;20404;-86
2021/12/13 09:27:39;;;;;;;44.90;13.87;;;7.40;97.30;;;;;;4978280;28;20401;-85
2021/12/13 09:30:26;;;;;;;44.67;14.67;;;7.40;97.30;;;;;;4984195;28;20919;-86
2021/12/13 09:33:14;;;;;;;42.90;17.27;;;7.40;97.30;;;;;;5015066;28;20482;-85
2021/12/13 09:35:55;;;;;;;44.57;13.97;;;7.40;97.30;;;;;;4997735;28;20420;-85
2021/12/13 09:38:35;;;;;;;39.53;13.00;;;7.40;97.30;;;;;;5015015;28;20394;-84
2021/12/13 09:41:18;;;;;;;42.23;12.70;;;7.40;97.30;;;;;;5015140;28;20448;-86
2021/12/13 09:43:51;;;;;;;40.03;14.83;;;7.50;97.30;;;;;;4997747;28;20436;-86
2021/12/13 09:47:04;;;;;;;40.27;12.93;;;7.50;97.30;;;;;;4998581;28;20423;-85
2021/12/13 09:49:38;;;;;;;46.67;15.77;;;7.50;97.30;;;;;;4957717;28;20954;-86
2021/12/13 09:52:25;;;;;;;41.90;13.57;;;7.60;97.30;;;;;;4995881;28;20474;-86
2021/12/13 09:54:58;;;;;;;40.80;14.10;;;7.50;97.30;;;;;;4998043;28;20918;-86
2021/12/13 09:58:03;;;;;;;47.03;14.57;;;7.60;97.30;;;;;;4997827;28;20419;-85
2021/12/13 10:00:43;;;;;;;41.30;13.63;;;7.60;97.30;;;;;;4970294;28;20524;-86
2021/12/13 10:03:13;;;;;;;38.10;13.13;;;7.60;97.30;;;;;;4976918;28;21253;-86
2021/12/13 10:05:44;;;;;;;39.00;13.07;;;7.60;97.30;;;;;;4977317;28;20398;-86
2021/12/13 10:08:15;;;;;;;42.97;14.07;;;7.60;97.30;;;;;;4977483;28;20476;-86
2021/12/13 10:10:49;;;;;;;48.53;12.83;;;7.70;97.30;;;;;;4977260;28;20900;-86
2021/12/13 10:13:23;;;;;;;50.37;14.03;;;7.70;97.30;;;;;;4994873;28;20503;-86
2021/12/13 10:15:54;;;;;;;39.33;12.63;;;7.70;97.30;;;;;;4977769;28;20420;-86
2021/12/13 10:18:25;;;;;;;41.47;12.93;;;7.70;97.30;;;;;;4995311;28;20769;-85
2021/12/13 10:20:55;;;;;;;40.10;11.67;;;7.70;97.30;;;;;;4992279;28;20826;-85
2021/12/13 10:23:25;;;;;;;47.57;13.17;;;7.80;97.30;;;;;;4997386;28;20446;-86
2021/12/13 10:25:53;;;;;;;44.53;13.10;;;7.80;97.30;;;;;;4996488;28;20412;-85
2021/12/13 10:28:31;;;;;;;41.27;12.03;;;7.90;97.30;;;;;;4997078;28;20890;-86
2021/12/13 10:31:20;;;;;;;30.80;13.23;;;7.90;97.30;;;;;;4997518;28;20412;-86
2021/12/13 10:33:47;;;;;;;36.63;12.13;;;7.90;97.30;;;;;;4996892;28;20451;-85
2021/12/13 10:36:15;;;;;;;40.67;11.67;;;8.00;97.30;;;;;;4997656;28;20423;-85
2021/12/13 10:38:51;;;;;;;37.27;12.20;;;8.00;97.30;;;;;;4997427;28;20427;-86
2021/12/13 10:41:30;;;;;;;37.90;12.67;;;8.10;97.30;;;;;;4996822;28;20478;-84
2021/12/13 10:44:05;;;;;;;36.60;11.30;;;8.20;97.30;;;;;;5014286;28;20428;-85
2021/12/13 10:46:52;;;;;;;31.50;10.50;;;8.20;97.30;;;;;;4996669;28;20407;-83
2021/12/13 10:49:21;;;;;;;30.13;10.90;;;8.20;97.30;;;;;;4996128;28;20416;-86
2021/12/13 10:51:57;;;;;;;39.50;12.70;;;8.20;97.30;;;;;;4997128;28;20416;-85
2021/12/13 10:54:30;;;;;;;35.47;11.23;;;8.30;97.30;;;;;;5029982;23;20504;-84
2021/12/13 10:57:00;;;;;;;34.67;12.10;;;8.30;97.30;;;;;;5026549;28;20519;-83
2021/12/13 10:59:31;;;;;;;32.00;11.60;;;8.30;97.30;;;;;;5015935;28;20413;-84
2021/12/13 11:02:03;;;;;;;36.03;12.00;;;8.30;97.30;;;;;;5013599;28;20444;-83
2021/12/13 11:04:40;;;;;;;39.63;13.00;;;8.30;97.30;;;;;;5000950;28;20415;-82
2021/12/13 11:07:11;;;;;;;36.43;13.37;;;8.30;97.30;;;;;;5017252;28;20443;-84
2021/12/13 11:09:40;;;;;;;31.37;12.50;;;8.30;97.30;;;;;;5017074;28;20408;-83
2021/12/13 11:12:18;;;;;;;34.27;11.80;;;8.30;97.30;;;;;;5016348;28;20412;-85
2021/12/13 11:14:47;;;;;;;41.73;12.77;;;8.30;97.30;;;;;;5015908;28;20507;-84
2021/12/13 11:17:26;;;;;;;31.27;14.10;;;8.30;97.30;;;;;;5016171;28;20509;-82
2021/12/13 11:19:59;;;;;;;41.33;16.47;;;8.40;97.30;;;;;;5016579;28;20802;-83
2021/12/13 11:22:30;;;;;;;34.50;12.67;;;8.40;97.30;;;;;;5016776;28;20404;-85
2021/12/13 11:25:01;;;;;;;54.60;16.53;;;8.40;97.30;;;;;;5017005;28;20408;-82
2021/12/13 11:27:31;;;;;;;42.57;13.80;;;8.40;97.30;;;;;;5000020;28;20439;-84
2021/12/13 11:30:00;;;;;;;43.07;14.87;;;8.40;97.30;;;;;;5000673;28;20400;-83
2021/12/13 11:32:35;;;;;;;39.67;14.10;;;8.40;97.30;;;;;;5000828;28;20748;-81
2021/12/13 11:35:06;;;;;;;36.77;12.37;;;8.50;97.30;;;;;;5000714;28;20415;-82
2021/12/13 11:37:51;;;;;;;37.17;13.70;;;8.50;97.30;;;;;;4997286;28;20428;-80
2021/12/13 11:40:41;;;;;;;38.03;12.93;;;8.60;97.30;;;;;;4995382;28;20487;-82
2021/12/13 11:43:25;;;;;;;37.93;13.37;;;8.60;97.30;;;;;;4993554;28;20420;-81
2021/12/13 11:46:24;;;;;;;30.63;11.50;;;8.60;97.30;;;;;;4993687;28;20514;-81
2021/12/13 11:49:24;;;;;;;33.10;12.43;;;8.60;97.30;;;;;;4993985;28;20420;-80
2021/12/13 11:52:42;;;;;;;43.10;12.50;;;8.60;97.30;;;;;;4993807;28;20416;-82
2021/12/13 11:55:28;;;;;;;36.53;13.30;;;8.70;97.30;;;;;;4996666;28;20726;-82
2021/12/13 11:58:16;;;;;;;28.43;10.90;;;8.70;97.30;;;;;;5013600;28;20840;-80
2021/12/13 12:01:14;;;;;;;35.50;12.13;;;8.70;97.30;;;;;;5011590;28;20455;-80
2021/12/13 12:04:07;;;;;;;36.10;11.37;;;8.70;97.30;;;;;;5012818;28;20407;-80
2021/12/13 12:07:10;;;;;;;31.30;11.70;;;8.70;97.30;;;;;;5028726;28;20437;-80
2021/12/13 12:09:51;;;;;;;35.67;11.03;;;8.70;97.30;;;;;;5028030;28;20429;-80
2021/12/13 12:12:54;;;;;;;27.87;10.97;;;8.70;97.30;;;;;;5037701;28;20772;-82
2021/12/13 12:15:23;;;;;;;34.13;10.73;;;8.70;97.30;;;;;;5036685;28;20419;-82
2021/12/13 12:17:50;;;;;;;32.17;12.43;;;8.70;97.30;;;;;;5030558;28;20488;-82
2021/12/13 12:20:31;;;;;;;37.83;13.23;;;8.70;97.30;;;;;;5020450;28;20462;-83
2021/12/13 12:23:08;;;;;;;40.63;12.40;;;8.60;97.30;;;;;;5017418;28;20908;-83
2021/12/13 12:25:37;;;;;;;32.83;11.50;;;8.70;97.30;;;;;;5014715;28;20918;-83
2021/12/13 12:28:15;;;;;;;30.47;11.23;;;8.70;97.30;;;;;;5015171;28;20462;-83
2021/12/13 12:30:48;;;;;;;31.47;10.67;;;8.70;97.30;;;;;;4995336;28;20535;-83
2021/12/13 12:33:27;;;;;;;30.60;11.60;;;8.70;97.30;;;;;;4995689;28;20933;-84
2021/12/13 12:35:54;;;;;;;33.73;13.03;;;8.80;97.30;;;;;;5012189;28;20418;-82
2021/12/13 12:38:43;;;;;;;34.17;11.10;;;8.80;97.30;;;;;;5017275;28;20425;-84
2021/12/13 12:41:11;;;;;;;33.50;10.50;;;8.80;97.30;;;;;;4975319;28;21106;-83
2021/12/13 12:43:50;;;;;;;27.70;9.70;;;8.80;97.30;;;;;;4996275;28;21041;-82
2021/12/13 12:46:16;;;;;;;30.33;9.67;;;8.80;97.30;;;;;;5015348;28;20442;-83
2021/12/13 12:48:57;;;;;;;29.40;10.50;;;8.80;97.30;;;;;;5015234;28;20785;-83
2021/12/13 12:51:27;;;;;;;29.40;10.23;;;8.90;97.30;;;;;;5035819;28;20412;-83
2021/12/13 12:54:19;;;;;;;34.90;11.70;;;8.80;97.30;;;;;;5015541;28;20456;-83
2021/12/13 12:56:52;;;;;;;29.17;10.70;;;8.80;97.30;;;;;;5032925;28;20535;-84
2021/12/13 12:59:40;;;;;;;30.53;10.60;;;8.80;97.30;;;;;;5044330;28;20422;-83
2021/12/13 13:02:08;;;;;;;25.67;8.20;;;8.80;97.30;;;;;;5035421;28;20545;-83
2021/12/13 13:04:54;;;;;;;31.27;10.57;;;8.80;97.30;;;;;;5035869;28;20411;-83
2021/12/13 13:07:35;;;;;;;23.87;9.27;;;8.80;97.30;;;;;;5034383;28;20442;-82
2021/12/13 13:12:46;;;;;;;25.30;9.90;;;8.80;97.30;;;;;;5034766;28;20489;-83
2021/12/13 13:15:25;;;;;;;23.47;8.93;;;8.80;97.30;;;;;;5032959;28;20449;-83
2021/12/13 13:18:00;;;;;;;24.90;9.67;;;8.80;97.30;;;;;;5033810;28;20461;-84
2021/12/13 13:20:31;;;;;;;30.60;9.30;;;8.80;97.30;;;;;;5034087;28;20450;-84
2021/12/13 13:22:58;;;;;;;22.30;8.70;;;8.80;97.30;;;;;;5025908;28;20416;-82
2021/12/13 13:25:37;;;;;;;22.43;9.23;;;8.80;97.30;;;;;;5014870;28;20415;-83
2021/12/13 13:28:14;;;;;;;22.37;7.87;;;8.80;97.30;;;;;;5014746;28;20983;-82
2021/12/13 13:30:49;;;;;;;23.63;9.50;;;8.80;97.30;;;;;;5015958;28;20423;-84
2021/12/13 13:33:16;;;;;;;26.20;9.40;;;8.80;97.30;;;;;;5014417;28;20468;-84
2021/12/13 13:35:42;;;;;;;24.30;9.27;;;8.80;97.30;;;;;;5014780;28;20435;-83
2021/12/13 13:38:16;;;;;;;23.63;9.37;;;8.80;97.30;;;;;;5025381;28;20573;-83
2021/12/13 13:40:43;;;;;;;30.77;11.00;;;8.80;97.30;;;;;;5013515;28;20543;-83
2021/12/13 13:43:12;;;;;;;25.97;10.53;;;8.80;97.30;;;;;;5031175;28;20445;-82
2021/12/13 13:45:39;;;;;;;32.30;11.33;;;8.80;97.30;;;;;;5023321;28;20427;-82
2021/12/13 13:48:16;;;;;;;27.37;9.90;;;8.80;97.30;;;;;;5023240;28;20443;-83
2021/12/13 13:50:47;;;;;;;20.57;9.07;;;8.80;97.30;;;;;;5034071;28;20470;-85
2021/12/13 13:53:15;;;;;;;23.60;9.90;;;8.80;97.30;;;;;;5031189;28;21068;-82
2021/12/13 13:55:55;;;;;;;27.70;11.00;;;8.80;97.30;;;;;;5040997;28;20424;-82
2021/12/13 13:58:30;;;;;;;28.70;10.70;;;8.80;97.30;;;;;;5031007;28;20423;-82
2021/12/13 14:01:40;;;;;;;26.43;8.60;;;8.80;97.30;;;;;;5029453;28;20462;-83
2021/12/13 14:04:22;;;;;;;18.83;9.20;;;8.80;97.30;;;;;;5033478;28;20490;-83
2021/12/13 14:06:52;;;;;;;25.00;8.90;;;8.80;97.30;;;;;;5024094;28;20522;-83
2021/12/13 14:09:28;;;;;;;25.53;10.13;;;8.70;97.30;;;;;;5030241;28;20461;-84
2021/12/13 14:12:00;;;;;;;26.80;9.67;;;8.70;97.30;;;;;;5033733;28;20414;-84